sensor_id;sensor_type;location;lat;lon;timestamp;P1;durP1;ratioP1;P2;durP2;ratioP2
11935;SDS011;6027;48.576;9.180;2022-11-11T00:00:57;6.63;;;5.17;;
11935;SDS011;6027;48.576;9.180;2022-11-11T00:03:26;5.20;;;4.60;;
11935;SDS011;6027;48.576;9.180;2022-11-11T00:05:52;4.33;;;3.93;;
11935;SDS011;6027;48.576;9.180;2022-11-11T00:08:18;6.37;;;4.30;;
11935;SDS011;6027;48.576;9.180;2022-11-11T00:10:43;7.07;;;4.20;;
11935;SDS011;6027;48.576;9.180;2022-11-11T00:13:09;4.20;;;3.87;;
11935;SDS011;6027;48.576;9.180;2022-11-11T00:15:38;6.67;;;4.50;;
11935;SDS011;6027;48.576;9.180;2022-11-11T00:18:04;6.43;;;4.83;;
11935;SDS011;6027;48.576;9.180;2022-11-11T00:20:48;6.73;;;4.20;;
11935;SDS011;6027;48.576;9.180;2022-11-11T00:23:37;5.20;;;4.40;;
11935;SDS011;6027;48.576;9.180;2022-11-11T00:26:21;5.70;;;3.90;;
11935;SDS011;6027;48.576;9.180;2022-11-11T00:28:50;5.33;;;4.33;;
11935;SDS011;6027;48.576;9.180;2022-11-11T00:31:15;4.83;;;4.33;;
11935;SDS011;6027;48.576;9.180;2022-11-11T00:33:41;8.23;;;4.20;;
11935;SDS011;6027;48.576;9.180;2022-11-11T00:36:06;6.03;;;3.97;;
11935;SDS011;6027;48.576;9.180;2022-11-11T00:38:32;7.90;;;4.40;;
11935;SDS011;6027;48.576;9.180;2022-11-11T00:41:10;8.20;;;3.80;;
11935;SDS011;6027;48.576;9.180;2022-11-11T00:43:54;12.77;;;3.90;;
11935;SDS011;6027;48.576;9.180;2022-11-11T00:46:19;91.70;;;5.37;;
11935;SDS011;6027;48.576;9.180;2022-11-11T00:49:03;420.27;;;10.97;;
11935;SDS011;6027;48.576;9.180;2022-11-11T00:51:47;401.27;;;10.53;;
11935;SDS011;6027;48.576;9.180;2022-11-11T00:54:13;426.87;;;10.53;;
11935;SDS011;6027;48.576;9.180;2022-11-11T00:56:38;179.43;;;6.57;;
11935;SDS011;6027;48.576;9.180;2022-11-11T01:01:32;130.17;;;5.80;;
11935;SDS011;6027;48.576;9.180;2022-11-11T01:03:58;74.17;;;4.43;;
11935;SDS011;6027;48.576;9.180;2022-11-11T01:06:24;72.10;;;4.30;;
11935;SDS011;6027;48.576;9.180;2022-11-11T01:08:49;181.07;;;6.30;;
11935;SDS011;6027;48.576;9.180;2022-11-11T01:11:16;161.53;;;6.37;;
11935;SDS011;6027;48.576;9.180;2022-11-11T01:13:43;150.67;;;6.17;;
11935;SDS011;6027;48.576;9.180;2022-11-11T01:16:27;139.90;;;6.07;;
11935;SDS011;6027;48.576;9.180;2022-11-11T01:18:53;103.47;;;5.03;;
11935;SDS011;6027;48.576;9.180;2022-11-11T01:21:20;89.80;;;4.77;;
11935;SDS011;6027;48.576;9.180;2022-11-11T01:23:47;27.07;;;3.40;;
11935;SDS011;6027;48.576;9.180;2022-11-11T01:28:50;43.60;;;3.63;;
11935;SDS011;6027;48.576;9.180;2022-11-11T01:31:17;120.40;;;5.60;;
11935;SDS011;6027;48.576;9.180;2022-11-11T01:33:44;66.17;;;4.63;;
11935;SDS011;6027;48.576;9.180;2022-11-11T01:36:11;99.87;;;5.43;;
11935;SDS011;6027;48.576;9.180;2022-11-11T01:38:41;105.37;;;5.60;;
11935;SDS011;6027;48.576;9.180;2022-11-11T01:41:07;147.67;;;6.77;;
11935;SDS011;6027;48.576;9.180;2022-11-11T01:43:54;153.87;;;6.90;;
11935;SDS011;6027;48.576;9.180;2022-11-11T01:48:49;177.53;;;6.87;;
11935;SDS011;6027;48.576;9.180;2022-11-11T01:51:37;420.23;;;11.03;;
11935;SDS011;6027;48.576;9.180;2022-11-11T01:54:07;386.10;;;11.50;;
11935;SDS011;6027;48.576;9.180;2022-11-11T01:56:38;376.87;;;11.07;;
11935;SDS011;6027;48.576;9.180;2022-11-11T01:59:08;286.13;;;8.70;;
11935;SDS011;6027;48.576;9.180;2022-11-11T02:01:37;322.47;;;10.47;;
11935;SDS011;6027;48.576;9.180;2022-11-11T02:04:03;245.00;;;8.83;;
11935;SDS011;6027;48.576;9.180;2022-11-11T02:06:50;274.97;;;9.33;;
11935;SDS011;6027;48.576;9.180;2022-11-11T02:09:18;200.70;;;9.20;;
11935;SDS011;6027;48.576;9.180;2022-11-11T02:11:47;225.47;;;8.87;;
11935;SDS011;6027;48.576;9.180;2022-11-11T02:14:33;155.00;;;6.60;;
11935;SDS011;6027;48.576;9.180;2022-11-11T02:17:11;172.13;;;7.50;;
11935;SDS011;6027;48.576;9.180;2022-11-11T02:19:52;146.70;;;7.30;;
11935;SDS011;6027;48.576;9.180;2022-11-11T02:25:24;104.40;;;6.10;;
11935;SDS011;6027;48.576;9.180;2022-11-11T02:27:53;103.67;;;6.23;;
11935;SDS011;6027;48.576;9.180;2022-11-11T02:30:23;99.40;;;6.53;;
11935;SDS011;6027;48.576;9.180;2022-11-11T02:32:50;55.30;;;5.23;;
11935;SDS011;6027;48.576;9.180;2022-11-11T02:35:21;82.17;;;6.10;;
11935;SDS011;6027;48.576;9.180;2022-11-11T02:37:55;37.57;;;4.70;;
11935;SDS011;6027;48.576;9.180;2022-11-11T02:40:25;71.53;;;6.07;;
11935;SDS011;6027;48.576;9.180;2022-11-11T02:42:54;53.70;;;5.87;;
11935;SDS011;6027;48.576;9.180;2022-11-11T02:45:20;40.57;;;4.97;;
11935;SDS011;6027;48.576;9.180;2022-11-11T02:47:46;27.23;;;4.80;;
11935;SDS011;6027;48.576;9.180;2022-11-11T02:50:11;28.17;;;5.30;;
11935;SDS011;6027;48.576;9.180;2022-11-11T02:52:36;48.23;;;5.23;;
11935;SDS011;6027;48.576;9.180;2022-11-11T02:55:02;25.83;;;5.23;;
11935;SDS011;6027;48.576;9.180;2022-11-11T02:57:28;54.20;;;6.33;;
11935;SDS011;6027;48.576;9.180;2022-11-11T02:59:53;30.73;;;4.63;;
11935;SDS011;6027;48.576;9.180;2022-11-11T03:02:21;33.13;;;5.40;;
11935;SDS011;6027;48.576;9.180;2022-11-11T03:04:51;49.27;;;5.60;;
11935;SDS011;6027;48.576;9.180;2022-11-11T03:07:21;32.47;;;5.17;;
11935;SDS011;6027;48.576;9.180;2022-11-11T03:09:47;20.33;;;4.37;;
11935;SDS011;6027;48.576;9.180;2022-11-11T03:12:13;21.63;;;4.00;;
11935;SDS011;6027;48.576;9.180;2022-11-11T03:14:38;8.03;;;3.87;;
11935;SDS011;6027;48.576;9.180;2022-11-11T03:17:04;17.57;;;4.37;;
11935;SDS011;6027;48.576;9.180;2022-11-11T03:19:48;39.67;;;4.67;;
11935;SDS011;6027;48.576;9.180;2022-11-11T03:22:13;13.80;;;4.10;;
11935;SDS011;6027;48.576;9.180;2022-11-11T03:24:39;18.80;;;4.20;;
11935;SDS011;6027;48.576;9.180;2022-11-11T03:27:25;47.67;;;5.20;;
11935;SDS011;6027;48.576;9.180;2022-11-11T03:29:50;175.70;;;7.87;;
11935;SDS011;6027;48.576;9.180;2022-11-11T03:32:15;260.43;;;10.33;;
11935;SDS011;6027;48.576;9.180;2022-11-11T03:34:41;323.67;;;11.43;;
11935;SDS011;6027;48.576;9.180;2022-11-11T03:37:08;436.37;;;14.33;;
11935;SDS011;6027;48.576;9.180;2022-11-11T03:39:54;435.70;;;14.30;;
11935;SDS011;6027;48.576;9.180;2022-11-11T03:42:19;372.77;;;14.10;;
11935;SDS011;6027;48.576;9.180;2022-11-11T03:44:45;263.80;;;12.43;;
11935;SDS011;6027;48.576;9.180;2022-11-11T03:47:10;245.50;;;11.23;;
11935;SDS011;6027;48.576;9.180;2022-11-11T03:49:36;369.73;;;15.73;;
11935;SDS011;6027;48.576;9.180;2022-11-11T03:52:02;195.50;;;12.33;;
11935;SDS011;6027;48.576;9.180;2022-11-11T03:54:27;95.00;;;9.70;;
11935;SDS011;6027;48.576;9.180;2022-11-11T03:56:53;124.60;;;12.17;;
11935;SDS011;6027;48.576;9.180;2022-11-11T03:59:38;42.10;;;9.10;;
11935;SDS011;6027;48.576;9.180;2022-11-11T04:02:04;48.27;;;22.80;;
11935;SDS011;6027;48.576;9.180;2022-11-11T04:04:48;22.33;;;12.00;;
11935;SDS011;6027;48.576;9.180;2022-11-11T04:07:32;10.37;;;9.23;;
11935;SDS011;6027;48.576;9.180;2022-11-11T04:10:16;11.30;;;7.67;;
11935;SDS011;6027;48.576;9.180;2022-11-11T04:12:47;9.27;;;8.37;;
11935;SDS011;6027;48.576;9.180;2022-11-11T04:15:32;9.20;;;7.70;;
11935;SDS011;6027;48.576;9.180;2022-11-11T04:18:16;7.97;;;7.07;;
11935;SDS011;6027;48.576;9.180;2022-11-11T04:20:42;7.43;;;6.70;;
11935;SDS011;6027;48.576;9.180;2022-11-11T04:23:26;7.63;;;7.03;;
11935;SDS011;6027;48.576;9.180;2022-11-11T04:25:52;7.70;;;7.00;;
11935;SDS011;6027;48.576;9.180;2022-11-11T04:28:19;5.70;;;5.30;;
11935;SDS011;6027;48.576;9.180;2022-11-11T04:31:03;5.93;;;5.53;;
11935;SDS011;6027;48.576;9.180;2022-11-11T04:33:29;6.10;;;5.63;;
11935;SDS011;6027;48.576;9.180;2022-11-11T04:35:54;6.90;;;6.40;;
11935;SDS011;6027;48.576;9.180;2022-11-11T04:38:19;8.70;;;7.90;;
11935;SDS011;6027;48.576;9.180;2022-11-11T04:41:04;6.93;;;6.37;;
11935;SDS011;6027;48.576;9.180;2022-11-11T04:43:32;8.63;;;7.83;;
11935;SDS011;6027;48.576;9.180;2022-11-11T04:46:21;11.27;;;10.17;;
11935;SDS011;6027;48.576;9.180;2022-11-11T04:48:46;10.63;;;9.73;;
11935;SDS011;6027;48.576;9.180;2022-11-11T04:51:11;9.03;;;8.17;;
11935;SDS011;6027;48.576;9.180;2022-11-11T04:53:37;8.93;;;8.13;;
11935;SDS011;6027;48.576;9.180;2022-11-11T04:56:02;9.20;;;8.40;;
11935;SDS011;6027;48.576;9.180;2022-11-11T04:58:46;9.07;;;8.30;;
11935;SDS011;6027;48.576;9.180;2022-11-11T05:01:12;7.57;;;6.97;;
11935;SDS011;6027;48.576;9.180;2022-11-11T05:03:57;5.47;;;5.07;;
11935;SDS011;6027;48.576;9.180;2022-11-11T05:06:23;13.03;;;6.87;;
11935;SDS011;6027;48.576;9.180;2022-11-11T05:09:07;44.20;;;9.60;;
11935;SDS011;6027;48.576;9.180;2022-11-11T05:11:34;83.13;;;9.80;;
11935;SDS011;6027;48.576;9.180;2022-11-11T05:14:01;75.60;;;9.27;;
11935;SDS011;6027;48.576;9.180;2022-11-11T05:16:50;212.87;;;11.23;;
11935;SDS011;6027;48.576;9.180;2022-11-11T05:19:38;239.03;;;10.20;;
11935;SDS011;6027;48.576;9.180;2022-11-11T05:24:54;427.20;;;15.93;;
11935;SDS011;6027;48.576;9.180;2022-11-11T05:27:38;374.57;;;13.10;;
11935;SDS011;6027;48.576;9.180;2022-11-11T05:30:05;496.70;;;17.00;;
11935;SDS011;6027;48.576;9.180;2022-11-11T05:32:32;419.43;;;15.60;;
11935;SDS011;6027;48.576;9.180;2022-11-11T05:34:58;477.50;;;16.30;;
11935;SDS011;6027;48.576;9.180;2022-11-11T05:37:23;402.10;;;16.03;;
11935;SDS011;6027;48.576;9.180;2022-11-11T05:39:49;275.37;;;11.03;;
11935;SDS011;6027;48.576;9.180;2022-11-11T05:42:15;222.43;;;10.70;;
11935;SDS011;6027;48.576;9.180;2022-11-11T05:44:41;178.73;;;9.90;;
11935;SDS011;6027;48.576;9.180;2022-11-11T05:47:07;183.43;;;11.73;;
11935;SDS011;6027;48.576;9.180;2022-11-11T05:49:32;57.60;;;6.73;;
11935;SDS011;6027;48.576;9.180;2022-11-11T05:51:58;111.67;;;9.30;;
11935;SDS011;6027;48.576;9.180;2022-11-11T05:54:24;88.53;;;9.30;;
11935;SDS011;6027;48.576;9.180;2022-11-11T05:56:50;68.07;;;7.90;;
11935;SDS011;6027;48.576;9.180;2022-11-11T05:59:15;83.73;;;9.50;;
11935;SDS011;6027;48.576;9.180;2022-11-11T06:01:41;57.67;;;7.20;;
11935;SDS011;6027;48.576;9.180;2022-11-11T06:04:07;51.33;;;7.13;;
11935;SDS011;6027;48.576;9.180;2022-11-11T06:06:33;79.03;;;9.53;;
11935;SDS011;6027;48.576;9.180;2022-11-11T06:08:59;52.80;;;8.20;;
11935;SDS011;6027;48.576;9.180;2022-11-11T06:11:25;85.50;;;8.40;;
11935;SDS011;6027;48.576;9.180;2022-11-11T06:13:54;130.17;;;9.63;;
11935;SDS011;6027;48.576;9.180;2022-11-11T06:16:20;133.10;;;10.23;;
11935;SDS011;6027;48.576;9.180;2022-11-11T06:18:45;91.97;;;9.67;;
11935;SDS011;6027;48.576;9.180;2022-11-11T06:21:11;173.57;;;11.47;;
11935;SDS011;6027;48.576;9.180;2022-11-11T06:23:37;292.40;;;13.93;;
11935;SDS011;6027;48.576;9.180;2022-11-11T06:26:03;503.23;;;17.07;;
11935;SDS011;6027;48.576;9.180;2022-11-11T06:31:17;454.83;;;17.03;;
11935;SDS011;6027;48.576;9.180;2022-11-11T06:33:44;490.73;;;18.33;;
11935;SDS011;6027;48.576;9.180;2022-11-11T06:36:11;458.97;;;19.63;;
11935;SDS011;6027;48.576;9.180;2022-11-11T06:38:38;415.90;;;16.37;;
11935;SDS011;6027;48.576;9.180;2022-11-11T06:41:05;411.17;;;16.03;;
11935;SDS011;6027;48.576;9.180;2022-11-11T06:43:31;341.97;;;14.77;;
11935;SDS011;6027;48.576;9.180;2022-11-11T06:45:56;327.23;;;14.83;;
11935;SDS011;6027;48.576;9.180;2022-11-11T06:48:22;306.93;;;14.87;;
11935;SDS011;6027;48.576;9.180;2022-11-11T06:50:50;141.40;;;11.23;;
11935;SDS011;6027;48.576;9.180;2022-11-11T06:53:16;178.80;;;18.07;;
11935;SDS011;6027;48.576;9.180;2022-11-11T06:55:42;250.53;;;27.07;;
11935;SDS011;6027;48.576;9.180;2022-11-11T06:58:16;172.00;;;18.13;;
11935;SDS011;6027;48.576;9.180;2022-11-11T07:00:43;139.03;;;14.07;;
11935;SDS011;6027;48.576;9.180;2022-11-11T07:03:11;85.33;;;9.87;;
11935;SDS011;6027;48.576;9.180;2022-11-11T07:05:38;65.00;;;10.20;;
11935;SDS011;6027;48.576;9.180;2022-11-11T07:08:04;71.37;;;9.40;;
11935;SDS011;6027;48.576;9.180;2022-11-11T07:10:32;26.67;;;7.93;;
11935;SDS011;6027;48.576;9.180;2022-11-11T07:12:58;38.93;;;9.57;;
11935;SDS011;6027;48.576;9.180;2022-11-11T07:15:24;45.57;;;18.27;;
11935;SDS011;6027;48.576;9.180;2022-11-11T07:17:50;32.73;;;10.20;;
11935;SDS011;6027;48.576;9.180;2022-11-11T07:20:16;30.53;;;9.23;;
11935;SDS011;6027;48.576;9.180;2022-11-11T07:22:41;36.23;;;10.80;;
11935;SDS011;6027;48.576;9.180;2022-11-11T07:25:07;24.30;;;8.60;;
11935;SDS011;6027;48.576;9.180;2022-11-11T07:27:36;11.73;;;10.47;;
11935;SDS011;6027;48.576;9.180;2022-11-11T07:30:03;10.40;;;8.30;;
11935;SDS011;6027;48.576;9.180;2022-11-11T07:32:29;9.80;;;8.80;;
11935;SDS011;6027;48.576;9.180;2022-11-11T07:34:54;8.27;;;7.57;;
11935;SDS011;6027;48.576;9.180;2022-11-11T07:37:20;8.67;;;7.97;;
11935;SDS011;6027;48.576;9.180;2022-11-11T07:39:45;6.53;;;5.97;;
11935;SDS011;6027;48.576;9.180;2022-11-11T07:42:10;6.50;;;6.03;;
11935;SDS011;6027;48.576;9.180;2022-11-11T07:44:36;5.90;;;5.50;;
11935;SDS011;6027;48.576;9.180;2022-11-11T07:47:01;5.90;;;5.50;;
11935;SDS011;6027;48.576;9.180;2022-11-11T07:49:27;6.27;;;5.77;;
11935;SDS011;6027;48.576;9.180;2022-11-11T07:51:52;5.87;;;5.47;;
11935;SDS011;6027;48.576;9.180;2022-11-11T07:54:18;6.33;;;5.83;;
11935;SDS011;6027;48.576;9.180;2022-11-11T07:56:43;7.57;;;6.97;;
11935;SDS011;6027;48.576;9.180;2022-11-11T07:59:08;6.47;;;5.97;;
11935;SDS011;6027;48.576;9.180;2022-11-11T08:01:34;9.10;;;8.20;;
11935;SDS011;6027;48.576;9.180;2022-11-11T08:03:59;17.33;;;7.50;;
11935;SDS011;6027;48.576;9.180;2022-11-11T08:06:25;21.27;;;9.10;;
11935;SDS011;6027;48.576;9.180;2022-11-11T08:08:50;7.77;;;7.00;;
11935;SDS011;6027;48.576;9.180;2022-11-11T08:11:16;14.97;;;9.13;;
11935;SDS011;6027;48.576;9.180;2022-11-11T08:13:41;20.30;;;9.37;;
11935;SDS011;6027;48.576;9.180;2022-11-11T08:16:10;11.23;;;8.97;;
11935;SDS011;6027;48.576;9.180;2022-11-11T08:18:37;13.70;;;12.20;;
11935;SDS011;6027;48.576;9.180;2022-11-11T08:21:03;12.53;;;10.60;;
11935;SDS011;6027;48.576;9.180;2022-11-11T08:23:29;13.90;;;12.50;;
11935;SDS011;6027;48.576;9.180;2022-11-11T08:25:57;13.57;;;11.23;;
11935;SDS011;6027;48.576;9.180;2022-11-11T08:28:27;12.70;;;11.00;;
11935;SDS011;6027;48.576;9.180;2022-11-11T08:30:57;11.90;;;10.63;;
11935;SDS011;6027;48.576;9.180;2022-11-11T08:33:24;11.60;;;10.50;;
11935;SDS011;6027;48.576;9.180;2022-11-11T08:35:50;10.13;;;9.13;;
11935;SDS011;6027;48.576;9.180;2022-11-11T08:38:18;10.03;;;9.13;;
11935;SDS011;6027;48.576;9.180;2022-11-11T08:40:44;10.40;;;9.33;;
11935;SDS011;6027;48.576;9.180;2022-11-11T08:43:09;10.30;;;9.40;;
11935;SDS011;6027;48.576;9.180;2022-11-11T08:45:35;10.17;;;9.23;;
11935;SDS011;6027;48.576;9.180;2022-11-11T08:48:00;14.80;;;13.43;;
11935;SDS011;6027;48.576;9.180;2022-11-11T08:50:26;10.67;;;9.67;;
11935;SDS011;6027;48.576;9.180;2022-11-11T08:52:51;9.93;;;9.13;;
11935;SDS011;6027;48.576;9.180;2022-11-11T08:55:17;10.00;;;9.10;;
11935;SDS011;6027;48.576;9.180;2022-11-11T08:57:43;8.80;;;8.03;;
11935;SDS011;6027;48.576;9.180;2022-11-11T09:00:09;8.90;;;8.00;;
11935;SDS011;6027;48.576;9.180;2022-11-11T09:02:35;9.33;;;8.43;;
11935;SDS011;6027;48.576;9.180;2022-11-11T09:05:01;8.97;;;8.07;;
11935;SDS011;6027;48.576;9.180;2022-11-11T09:07:27;8.73;;;7.90;;
11935;SDS011;6027;48.576;9.180;2022-11-11T09:09:53;8.47;;;7.67;;
11935;SDS011;6027;48.576;9.180;2022-11-11T09:12:18;9.07;;;8.17;;
11935;SDS011;6027;48.576;9.180;2022-11-11T09:14:44;8.23;;;7.43;;
11935;SDS011;6027;48.576;9.180;2022-11-11T09:17:10;8.13;;;7.33;;
11935;SDS011;6027;48.576;9.180;2022-11-11T09:22:02;7.83;;;7.13;;
11935;SDS011;6027;48.576;9.180;2022-11-11T09:24:27;8.63;;;7.57;;
11935;SDS011;6027;48.576;9.180;2022-11-11T09:26:53;10.03;;;8.27;;
11935;SDS011;6027;48.576;9.180;2022-11-11T09:29:19;9.43;;;8.53;;
11935;SDS011;6027;48.576;9.180;2022-11-11T09:31:44;8.00;;;7.30;;
11935;SDS011;6027;48.576;9.180;2022-11-11T09:34:11;8.17;;;7.43;;
11935;SDS011;6027;48.576;9.180;2022-11-11T09:36:37;8.40;;;7.57;;
11935;SDS011;6027;48.576;9.180;2022-11-11T09:39:02;8.40;;;7.70;;
11935;SDS011;6027;48.576;9.180;2022-11-11T09:43:58;9.10;;;8.20;;
11935;SDS011;6027;48.576;9.180;2022-11-11T09:49:08;9.80;;;7.00;;
11935;SDS011;6027;48.576;9.180;2022-11-11T09:54:36;8.23;;;7.53;;
11935;SDS011;6027;48.576;9.180;2022-11-11T09:57:05;7.40;;;6.70;;
11935;SDS011;6027;48.576;9.180;2022-11-11T09:59:48;7.37;;;6.27;;
11935;SDS011;6027;48.576;9.180;2022-11-11T10:02:38;6.63;;;5.70;;
11935;SDS011;6027;48.576;9.180;2022-11-11T10:05:13;8.10;;;6.40;;
11935;SDS011;6027;48.576;9.180;2022-11-11T10:07:48;7.33;;;6.43;;
11935;SDS011;6027;48.576;9.180;2022-11-11T10:13:13;7.32;;;5.57;;
11935;SDS011;6027;48.576;9.180;2022-11-11T10:15:45;6.88;;;5.63;;
11935;SDS011;6027;48.576;9.180;2022-11-11T10:18:24;6.18;;;5.28;;
11935;SDS011;6027;48.576;9.180;2022-11-11T10:20:57;6.13;;;5.45;;
11935;SDS011;6027;48.576;9.180;2022-11-11T10:23:29;6.30;;;5.70;;
11935;SDS011;6027;48.576;9.180;2022-11-11T10:26:04;7.33;;;5.33;;
11935;SDS011;6027;48.576;9.180;2022-11-11T10:28:37;5.82;;;5.10;;
11935;SDS011;6027;48.576;9.180;2022-11-11T10:31:11;4.80;;;4.40;;
11935;SDS011;6027;48.576;9.180;2022-11-11T10:36:50;6.78;;;4.88;;
11935;SDS011;6027;48.576;9.180;2022-11-11T10:39:23;5.53;;;4.85;;
11935;SDS011;6027;48.576;9.180;2022-11-11T10:42:02;5.07;;;4.57;;
11935;SDS011;6027;48.576;9.180;2022-11-11T10:44:30;4.72;;;3.97;;
11935;SDS011;6027;48.576;9.180;2022-11-11T10:49:30;5.35;;;3.70;;
11935;SDS011;6027;48.576;9.180;2022-11-11T10:54:31;6.60;;;3.90;;
11935;SDS011;6027;48.576;9.180;2022-11-11T11:00:15;8.48;;;4.03;;
11935;SDS011;6027;48.576;9.180;2022-11-11T11:02:44;5.15;;;4.20;;
11935;SDS011;6027;48.576;9.180;2022-11-11T11:05:17;4.13;;;3.72;;
11935;SDS011;6027;48.576;9.180;2022-11-11T11:07:49;5.93;;;3.33;;
11935;SDS011;6027;48.576;9.180;2022-11-11T11:10:20;7.90;;;4.03;;
11935;SDS011;6027;48.576;9.180;2022-11-11T11:12:51;6.00;;;3.65;;
11935;SDS011;6027;48.576;9.180;2022-11-11T11:15:38;4.15;;;3.47;;
11935;SDS011;6027;48.576;9.180;2022-11-11T11:18:12;4.15;;;3.08;;
11935;SDS011;6027;48.576;9.180;2022-11-11T11:20:59;5.13;;;3.10;;
11935;SDS011;6027;48.576;9.180;2022-11-11T11:23:39;3.80;;;2.67;;
11935;SDS011;6027;48.576;9.180;2022-11-11T11:26:10;3.83;;;2.90;;
11935;SDS011;6027;48.576;9.180;2022-11-11T11:28:51;3.17;;;2.55;;
11935;SDS011;6027;48.576;9.180;2022-11-11T11:31:19;3.13;;;2.35;;
11935;SDS011;6027;48.576;9.180;2022-11-11T11:33:59;5.20;;;2.33;;
11935;SDS011;6027;48.576;9.180;2022-11-11T11:36:24;3.80;;;2.97;;
11935;SDS011;6027;48.576;9.180;2022-11-11T11:38:50;3.20;;;2.70;;
11935;SDS011;6027;48.576;9.180;2022-11-11T11:41:15;4.45;;;2.92;;
11935;SDS011;6027;48.576;9.180;2022-11-11T11:43:43;4.75;;;2.60;;
11935;SDS011;6027;48.576;9.180;2022-11-11T11:54:20;4.72;;;3.30;;
11935;SDS011;6027;48.576;9.180;2022-11-11T11:57:37;8.10;;;3.67;;
11935;SDS011;6027;48.576;9.180;2022-11-11T12:00:03;5.57;;;3.00;;
11935;SDS011;6027;48.576;9.180;2022-11-11T12:02:47;3.90;;;3.55;;
11935;SDS011;6027;48.576;9.180;2022-11-11T12:19:29;7.57;;;3.50;;
11935;SDS011;6027;48.576;9.180;2022-11-11T12:30:26;3.42;;;3.13;;
11935;SDS011;6027;48.576;9.180;2022-11-11T12:33:02;4.80;;;3.30;;
11935;SDS011;6027;48.576;9.180;2022-11-11T12:44:55;3.22;;;2.50;;
11935;SDS011;6027;48.576;9.180;2022-11-11T12:50:35;6.22;;;3.50;;
11935;SDS011;6027;48.576;9.180;2022-11-11T12:59:02;5.00;;;3.10;;
11935;SDS011;6027;48.576;9.180;2022-11-11T13:01:46;6.38;;;3.28;;
11935;SDS011;6027;48.576;9.180;2022-11-11T13:12:21;4.07;;;3.67;;
11935;SDS011;6027;48.576;9.180;2022-11-11T13:17:42;4.43;;;3.50;;
11935;SDS011;6027;48.576;9.180;2022-11-11T13:22:48;4.72;;;3.47;;
11935;SDS011;6027;48.576;9.180;2022-11-11T13:25:16;5.63;;;4.18;;
11935;SDS011;6027;48.576;9.180;2022-11-11T13:27:57;5.70;;;4.20;;
11935;SDS011;6027;48.576;9.180;2022-11-11T13:30:34;6.32;;;4.60;;
11935;SDS011;6027;48.576;9.180;2022-11-11T13:33:17;5.80;;;3.75;;
11935;SDS011;6027;48.576;9.180;2022-11-11T13:38:33;4.97;;;3.42;;
11935;SDS011;6027;48.576;9.180;2022-11-11T13:41:03;4.18;;;2.95;;
11935;SDS011;6027;48.576;9.180;2022-11-11T13:43:32;6.68;;;3.25;;
11935;SDS011;6027;48.576;9.180;2022-11-11T13:46:01;6.00;;;3.55;;
11935;SDS011;6027;48.576;9.180;2022-11-11T13:48:34;7.53;;;4.05;;
11935;SDS011;6027;48.576;9.180;2022-11-11T13:53:45;3.95;;;2.80;;
11935;SDS011;6027;48.576;9.180;2022-11-11T13:56:20;5.95;;;4.00;;
11935;SDS011;6027;48.576;9.180;2022-11-11T13:58:48;4.63;;;3.25;;
11935;SDS011;6027;48.576;9.180;2022-11-11T14:01:14;5.68;;;4.25;;
11935;SDS011;6027;48.576;9.180;2022-11-11T14:21:53;3.95;;;2.00;;
11935;SDS011;6027;48.576;9.180;2022-11-11T14:27:00;4.05;;;1.80;;
11935;SDS011;6027;48.576;9.180;2022-11-11T14:29:31;3.08;;;1.67;;
11935;SDS011;6027;48.576;9.180;2022-11-11T14:34:43;3.95;;;1.90;;
11935;SDS011;6027;48.576;9.180;2022-11-11T14:39:52;2.95;;;2.13;;
11935;SDS011;6027;48.576;9.180;2022-11-11T14:47:56;3.00;;;2.72;;
11935;SDS011;6027;48.576;9.180;2022-11-11T14:52:57;5.53;;;3.45;;
11935;SDS011;6027;48.576;9.180;2022-11-11T14:55:33;5.57;;;3.10;;
11935;SDS011;6027;48.576;9.180;2022-11-11T14:58:17;4.75;;;3.15;;
11935;SDS011;6027;48.576;9.180;2022-11-11T15:00:56;3.05;;;2.70;;
11935;SDS011;6027;48.576;9.180;2022-11-11T15:03:45;6.43;;;2.90;;
11935;SDS011;6027;48.576;9.180;2022-11-11T15:09:06;6.05;;;4.32;;
11935;SDS011;6027;48.576;9.180;2022-11-11T15:37:03;5.95;;;4.22;;
11935;SDS011;6027;48.576;9.180;2022-11-11T15:39:41;7.32;;;4.00;;
11935;SDS011;6027;48.576;9.180;2022-11-11T15:42:12;5.38;;;4.50;;
11935;SDS011;6027;48.576;9.180;2022-11-11T15:44:53;7.07;;;4.10;;
11935;SDS011;6027;48.576;9.180;2022-11-11T15:47:19;8.63;;;4.60;;
11935;SDS011;6027;48.576;9.180;2022-11-11T15:49:47;5.95;;;5.03;;
11935;SDS011;6027;48.576;9.180;2022-11-11T15:54:56;7.00;;;4.40;;
11935;SDS011;6027;48.576;9.180;2022-11-11T15:57:29;6.10;;;4.60;;
11935;SDS011;6027;48.576;9.180;2022-11-11T16:00:00;8.32;;;6.45;;
11935;SDS011;6027;48.576;9.180;2022-11-11T16:02:32;12.45;;;7.25;;
11935;SDS011;6027;48.576;9.180;2022-11-11T16:05:06;16.38;;;14.73;;
11935;SDS011;6027;48.576;9.180;2022-11-11T16:07:42;18.85;;;16.45;;
11935;SDS011;6027;48.576;9.180;2022-11-11T16:10:11;11.70;;;10.50;;
11935;SDS011;6027;48.576;9.180;2022-11-11T16:12:45;11.00;;;7.32;;
11935;SDS011;6027;48.576;9.180;2022-11-11T16:15:21;8.25;;;5.85;;
11935;SDS011;6027;48.576;9.180;2022-11-11T16:17:51;9.38;;;6.50;;
11935;SDS011;6027;48.576;9.180;2022-11-11T16:20:21;12.68;;;9.00;;
11935;SDS011;6027;48.576;9.180;2022-11-11T16:22:53;10.73;;;8.43;;
11935;SDS011;6027;48.576;9.180;2022-11-11T16:25:24;17.98;;;12.32;;
11935;SDS011;6027;48.576;9.180;2022-11-11T16:27:50;10.75;;;9.23;;
11935;SDS011;6027;48.576;9.180;2022-11-11T16:30:30;15.70;;;11.98;;
11935;SDS011;6027;48.576;9.180;2022-11-11T16:32:57;17.55;;;11.50;;
11935;SDS011;6027;48.576;9.180;2022-11-11T16:37:50;11.52;;;5.82;;
11935;SDS011;6027;48.576;9.180;2022-11-11T16:45:47;11.15;;;6.88;;
11935;SDS011;6027;48.576;9.180;2022-11-11T16:50:59;17.00;;;10.63;;
11935;SDS011;6027;48.576;9.180;2022-11-11T16:53:30;16.70;;;9.07;;
11935;SDS011;6027;48.576;9.180;2022-11-11T16:56:00;12.93;;;7.65;;
11935;SDS011;6027;48.576;9.180;2022-11-11T16:58:28;9.40;;;8.05;;
11935;SDS011;6027;48.576;9.180;2022-11-11T17:01:02;12.52;;;7.90;;
11935;SDS011;6027;48.576;9.180;2022-11-11T17:03:28;14.27;;;7.70;;
11935;SDS011;6027;48.576;9.180;2022-11-11T17:05:59;9.05;;;7.70;;
11935;SDS011;6027;48.576;9.180;2022-11-11T17:08:44;11.27;;;8.38;;
11935;SDS011;6027;48.576;9.180;2022-11-11T17:11:40;12.88;;;8.77;;
11935;SDS011;6027;48.576;9.180;2022-11-11T17:13:58;11.07;;;9.45;;
11935;SDS011;6027;48.576;9.180;2022-11-11T17:16:24;14.80;;;10.48;;
11935;SDS011;6027;48.576;9.180;2022-11-11T17:18:49;15.35;;;11.18;;
11935;SDS011;6027;48.576;9.180;2022-11-11T17:21:15;15.48;;;10.70;;
11935;SDS011;6027;48.576;9.180;2022-11-11T17:23:40;12.98;;;10.68;;
11935;SDS011;6027;48.576;9.180;2022-11-11T17:26:06;14.20;;;10.93;;
11935;SDS011;6027;48.576;9.180;2022-11-11T17:28:35;14.95;;;10.68;;
11935;SDS011;6027;48.576;9.180;2022-11-11T17:31:05;15.15;;;13.02;;
11935;SDS011;6027;48.576;9.180;2022-11-11T17:33:31;17.88;;;11.15;;
11935;SDS011;6027;48.576;9.180;2022-11-11T17:35:56;10.02;;;8.85;;
11935;SDS011;6027;48.576;9.180;2022-11-11T17:38:22;12.32;;;8.90;;
11935;SDS011;6027;48.576;9.180;2022-11-11T17:40:48;12.40;;;10.27;;
11935;SDS011;6027;48.576;9.180;2022-11-11T17:43:13;14.93;;;10.88;;
11935;SDS011;6027;48.576;9.180;2022-11-11T17:45:40;13.35;;;11.95;;
11935;SDS011;6027;48.576;9.180;2022-11-11T17:48:06;14.20;;;11.35;;
11935;SDS011;6027;48.576;9.180;2022-11-11T17:50:34;15.07;;;10.80;;
11935;SDS011;6027;48.576;9.180;2022-11-11T17:53:01;17.30;;;12.80;;
11935;SDS011;6027;48.576;9.180;2022-11-11T17:55:26;13.55;;;11.75;;
11935;SDS011;6027;48.576;9.180;2022-11-11T17:57:52;16.75;;;12.00;;
11935;SDS011;6027;48.576;9.180;2022-11-11T18:00:18;13.60;;;12.18;;
11935;SDS011;6027;48.576;9.180;2022-11-11T18:02:43;14.02;;;12.55;;
11935;SDS011;6027;48.576;9.180;2022-11-11T18:05:09;22.77;;;16.83;;
11935;SDS011;6027;48.576;9.180;2022-11-11T18:07:34;17.50;;;15.63;;
11935;SDS011;6027;48.576;9.180;2022-11-11T18:10:00;17.98;;;15.45;;